createdAt,value
2022-10-19T00:01:10.058Z,11.50
2022-10-19T00:03:43.901Z,10.50
2022-10-19T00:06:19.491Z,10.10
2022-10-19T00:08:52.496Z,9.80
2022-10-19T00:11:26.619Z,9.70
2022-10-19T00:14:01.645Z,9.40
2022-10-19T00:16:36.902Z,9.30
2022-10-19T00:19:13.286Z,8.70
2022-10-19T00:21:46.831Z,8.80
2022-10-19T00:24:20.451Z,8.30
2022-10-19T00:26:53.490Z,7.00
2022-10-19T00:29:26.560Z,7.70
2022-10-19T00:31:59.636Z,7.90
2022-10-19T00:34:32.720Z,8.20
2022-10-19T00:37:05.830Z,9.70
2022-10-19T00:39:39.754Z,10.40
2022-10-19T00:42:15.194Z,9.80
2022-10-19T00:45:14.373Z,10.50
2022-10-19T00:47:48.620Z,9.50
2022-10-19T00:50:21.997Z,10.40
2022-10-19T00:52:55.196Z,10.90
2022-10-19T00:55:28.717Z,10.60
2022-10-19T00:58:02.314Z,9.80
2022-10-19T01:00:35.550Z,9.90
2022-10-19T01:03:10.555Z,9.90
2022-10-19T01:05:44.413Z,9.70
2022-10-19T01:08:18.131Z,10.20
2022-10-19T01:11:02.804Z,10.00
2022-10-19T01:13:48.358Z,10.60
2022-10-19T01:16:30.658Z,10.10
2022-10-19T01:19:16.682Z,9.30
2022-10-19T01:21:57.813Z,10.10
2022-10-19T01:24:52.212Z,9.60
2022-10-19T01:27:54.819Z,8.80
2022-10-19T01:30:39.039Z,9.60
2022-10-19T01:33:23.717Z,9.20
2022-10-19T01:36:04.555Z,8.50
2022-10-19T01:38:47.798Z,8.70
2022-10-19T01:41:28.872Z,7.60
2022-10-19T01:44:10.128Z,6.80
2022-10-19T01:46:45.496Z,8.40
2022-10-19T01:49:22.420Z,8.30
2022-10-19T01:52:00.851Z,8.90
2022-10-19T01:54:40.037Z,9.00
2022-10-19T01:57:19.109Z,9.10
2022-10-19T01:59:53.816Z,8.80
2022-10-19T02:02:29.566Z,8.80
2022-10-19T02:05:04.491Z,9.10
2022-10-19T02:07:40.488Z,9.00
2022-10-19T02:12:48.477Z,9.00
2022-10-19T02:15:25.368Z,8.20
2022-10-19T02:18:02.243Z,9.10
2022-10-19T02:20:36.450Z,9.20
2022-10-19T02:23:09.963Z,10.10
2022-10-19T02:25:43.062Z,9.30
2022-10-19T02:28:16.255Z,9.40
2022-10-19T02:30:49.557Z,9.10
2022-10-19T02:33:22.802Z,9.00
2022-10-19T02:35:56.515Z,9.90
2022-10-19T02:38:30.359Z,10.00
2022-10-19T02:41:09.600Z,10.30
2022-10-19T02:43:47.067Z,9.70
2022-10-19T02:46:28.565Z,9.50
2022-10-19T02:49:03.572Z,9.30
2022-10-19T02:51:38.514Z,9.60
2022-10-19T02:54:11.831Z,10.10
2022-10-19T02:56:44.796Z,9.80
2022-10-19T02:59:17.693Z,9.90
2022-10-19T03:01:50.871Z,10.90
2022-10-19T03:04:23.980Z,9.80
2022-10-19T03:06:57.425Z,10.20
2022-10-19T03:09:30.784Z,10.80
2022-10-19T03:12:04.332Z,10.30
2022-10-19T03:14:37.358Z,9.50
2022-10-19T03:17:10.817Z,9.60
2022-10-19T03:19:43.685Z,9.30
2022-10-19T03:22:17.799Z,9.40
2022-10-19T03:24:51.404Z,9.40
2022-10-19T03:27:24.428Z,9.10
2022-10-19T03:29:57.440Z,8.80
2022-10-19T03:32:30.387Z,10.10
2022-10-19T03:35:03.490Z,8.90
2022-10-19T03:37:36.747Z,8.90
2022-10-19T03:40:11.727Z,8.40
2022-10-19T03:42:44.592Z,8.60
2022-10-19T03:45:17.714Z,9.30
2022-10-19T03:47:54.004Z,8.70
2022-10-19T03:50:27.153Z,9.00
2022-10-19T03:53:00.323Z,8.10
2022-10-19T03:55:33.519Z,7.80
2022-10-19T03:58:06.607Z,8.90
2022-10-19T04:00:41.555Z,8.00
2022-10-19T04:03:14.495Z,8.30
2022-10-19T04:05:47.489Z,8.30
2022-10-19T04:08:20.663Z,7.80
2022-10-19T04:10:53.809Z,7.60
2022-10-19T04:13:26.801Z,7.50
2022-10-19T04:16:00.451Z,8.10
2022-10-19T04:18:33.813Z,8.80
2022-10-19T04:21:07.752Z,7.90
2022-10-19T04:23:40.642Z,7.90
2022-10-19T04:26:13.556Z,7.70
2022-10-19T04:28:46.658Z,6.90
2022-10-19T04:31:20.031Z,6.70
2022-10-19T04:33:53.308Z,6.80
2022-10-19T04:36:26.445Z,7.90
2022-10-19T04:38:59.475Z,7.00
2022-10-19T04:41:33.364Z,6.90
2022-10-19T04:44:07.952Z,6.40
2022-10-19T04:46:40.933Z,6.50
2022-10-19T04:49:16.500Z,7.20
2022-10-19T04:54:24.470Z,6.70
2022-10-19T04:56:57.617Z,6.80
2022-10-19T04:59:30.678Z,6.70
2022-10-19T05:02:03.649Z,6.60
2022-10-19T05:04:36.680Z,7.00
2022-10-19T05:07:09.765Z,6.10
2022-10-19T05:09:42.954Z,6.40
2022-10-19T05:12:16.201Z,6.60
2022-10-19T05:14:49.555Z,6.00
2022-10-19T05:17:22.587Z,6.90
2022-10-19T05:19:55.746Z,6.10
2022-10-19T05:22:28.995Z,6.20
2022-10-19T05:25:02.424Z,6.20
2022-10-19T05:27:36.248Z,6.00
2022-10-19T05:30:11.847Z,6.00
2022-10-19T05:32:44.759Z,6.50
2022-10-19T05:35:21.507Z,6.30
2022-10-19T05:37:59.180Z,6.20
2022-10-19T05:40:32.401Z,6.60
2022-10-19T05:43:05.493Z,6.00
2022-10-19T05:45:38.508Z,6.10
2022-10-19T05:48:11.692Z,6.50
2022-10-19T05:50:53.970Z,5.80
2022-10-19T05:53:27.162Z,5.50
2022-10-19T05:56:00.419Z,5.50
2022-10-19T05:58:33.580Z,5.60
2022-10-19T06:01:06.904Z,5.90
2022-10-19T06:03:40.202Z,5.60
2022-10-19T06:06:13.422Z,5.60
2022-10-19T06:08:46.649Z,6.60
2022-10-19T06:11:21.472Z,5.10
2022-10-19T06:13:57.310Z,5.00
2022-10-19T06:16:32.012Z,5.40
2022-10-19T06:19:06.201Z,5.80
2022-10-19T06:21:41.900Z,5.00
2022-10-19T06:24:18.222Z,5.20
2022-10-19T06:26:51.302Z,4.40
2022-10-19T06:29:24.373Z,4.80
2022-10-19T06:32:00.019Z,5.30
2022-10-19T06:34:33.403Z,5.00
2022-10-19T06:37:06.743Z,5.70
2022-10-19T06:39:39.793Z,4.90
2022-10-19T06:42:12.967Z,5.50
2022-10-19T06:44:46.993Z,4.70
2022-10-19T06:47:20.045Z,4.50
2022-10-19T06:49:53.381Z,5.30
2022-10-19T06:52:26.896Z,5.60
2022-10-19T06:55:00.143Z,5.20
2022-10-19T06:57:33.986Z,5.60
2022-10-19T07:00:09.166Z,5.30
2022-10-19T07:02:42.079Z,4.90
2022-10-19T07:05:15.077Z,4.00
2022-10-19T07:07:48.126Z,4.90
2022-10-19T07:10:21.637Z,4.70
2022-10-19T07:12:54.694Z,4.70
2022-10-19T07:15:27.694Z,4.70
2022-10-19T07:18:00.809Z,4.00
2022-10-19T07:20:34.138Z,4.10
2022-10-19T07:23:07.409Z,4.10
2022-10-19T07:25:41.099Z,4.40
2022-10-19T07:28:14.238Z,3.90
2022-10-19T07:30:47.373Z,3.90
2022-10-19T07:33:20.443Z,3.30
2022-10-19T07:36:00.279Z,3.20
2022-10-19T07:38:34.904Z,3.20
2022-10-19T07:41:10.600Z,3.10
2022-10-19T07:43:45.140Z,3.50
2022-10-19T07:46:19.838Z,3.20
2022-10-19T07:48:53.715Z,3.60
2022-10-19T07:51:26.767Z,3.10
2022-10-19T07:54:00.983Z,3.60
2022-10-19T07:56:34.773Z,3.80
2022-10-19T07:59:07.942Z,4.00
2022-10-19T08:01:43.540Z,3.90
2022-10-19T08:07:11.379Z,3.80
2022-10-19T08:09:52.935Z,4.10
2022-10-19T08:12:26.959Z,3.50
2022-10-19T08:15:00.513Z,4.40
2022-10-19T08:17:33.722Z,4.90
2022-10-19T08:20:08.639Z,4.50
2022-10-19T08:22:42.167Z,4.60
2022-10-19T08:25:15.281Z,4.40
2022-10-19T08:27:48.209Z,3.70
2022-10-19T08:30:21.237Z,4.00
2022-10-19T08:32:54.188Z,4.30
2022-10-19T08:35:27.058Z,4.50
2022-10-19T08:38:02.095Z,3.70
2022-10-19T08:40:36.403Z,4.00
2022-10-19T08:43:20.474Z,3.60
2022-10-19T08:46:01.161Z,4.00
2022-10-19T08:48:39.556Z,3.90
2022-10-19T08:51:15.007Z,3.80
2022-10-19T08:53:55.555Z,4.10
2022-10-19T08:56:51.542Z,3.90
2022-10-19T08:59:38.074Z,3.70
2022-10-19T09:02:19.546Z,3.00
2022-10-19T09:05:00.237Z,3.00
2022-10-19T09:07:37.343Z,3.10
2022-10-19T09:10:20.933Z,3.00
2022-10-19T09:12:59.694Z,3.30
2022-10-19T09:15:40.729Z,3.40
2022-10-19T09:18:16.652Z,3.50
2022-10-19T09:20:52.482Z,3.20
2022-10-19T09:23:31.281Z,3.30
2022-10-19T09:26:05.305Z,2.90
2022-10-19T09:28:48.558Z,3.40
2022-10-19T09:31:31.440Z,3.90
2022-10-19T09:34:09.269Z,3.00
2022-10-19T09:36:52.239Z,3.30
2022-10-19T09:39:28.557Z,3.50
2022-10-19T09:42:09.515Z,4.00
2022-10-19T09:44:42.753Z,3.20
2022-10-19T09:47:30.897Z,3.20
2022-10-19T09:50:22.380Z,3.30
2022-10-19T09:52:58.198Z,2.30
2022-10-19T09:55:40.116Z,2.60
2022-10-19T09:58:21.116Z,2.70
2022-10-19T10:00:56.368Z,2.60
2022-10-19T10:03:32.536Z,2.20
2022-10-19T10:06:10.094Z,2.50
2022-10-19T10:08:47.862Z,1.90
2022-10-19T10:11:29.480Z,1.80
2022-10-19T10:14:16.934Z,1.00
2022-10-19T10:16:56.180Z,0.60
2022-10-19T10:19:33.326Z,0.70
2022-10-19T10:22:07.228Z,0.70
2022-10-19T10:24:56.189Z,1.00
2022-10-19T10:27:38.882Z,1.10
2022-10-19T10:30:20.497Z,0.70
2022-10-19T10:32:57.994Z,0.80
2022-10-19T10:35:37.797Z,1.40
2022-10-19T10:38:16.632Z,0.70
2022-10-19T10:43:32.591Z,1.00
2022-10-19T10:46:09.836Z,0.60
2022-10-19T10:48:47.677Z,0.90
2022-10-19T10:51:30.549Z,0.70
2022-10-19T10:54:18.335Z,1.30
2022-10-19T10:57:06.654Z,0.90
2022-10-19T10:59:47.983Z,1.10
2022-10-19T11:02:34.297Z,1.00
2022-10-19T11:05:13.519Z,0.90
2022-10-19T11:07:48.181Z,1.10
2022-10-19T11:10:28.267Z,1.00
2022-10-19T11:13:08.695Z,1.20
2022-10-19T11:15:49.005Z,1.10
2022-10-19T11:18:26.922Z,1.10
2022-10-19T11:21:08.001Z,1.40
2022-10-19T11:23:51.948Z,1.10
2022-10-19T11:26:36.975Z,1.40
2022-10-19T11:29:32.588Z,1.50
2022-10-19T11:32:14.509Z,1.50
2022-10-19T11:35:04.552Z,1.10
2022-10-19T11:38:06.699Z,1.30
2022-10-19T11:41:16.466Z,1.00
2022-10-19T11:43:58.316Z,0.80
2022-10-19T11:46:40.312Z,1.10
2022-10-19T11:49:29.221Z,0.90
2022-10-19T11:52:08.919Z,0.90
2022-10-19T11:55:01.637Z,0.70
2022-10-19T11:57:51.214Z,1.30
2022-10-19T12:00:38.676Z,0.80
2022-10-19T12:06:13.208Z,0.90
2022-10-19T12:09:08.943Z,1.30
2022-10-19T12:11:57.984Z,1.40
2022-10-19T12:14:37.575Z,0.80
2022-10-19T12:17:16.557Z,0.70
2022-10-19T12:19:53.842Z,1.00
2022-10-19T12:22:30.674Z,0.90
2022-10-19T12:25:05.215Z,1.30
2022-10-19T12:27:41.033Z,0.80
2022-10-19T12:30:18.887Z,0.70
2022-10-19T12:33:07.421Z,0.80
2022-10-19T12:36:01.059Z,0.80
2022-10-19T12:38:46.112Z,1.00
2022-10-19T12:41:29.133Z,0.90
2022-10-19T12:44:32.825Z,0.80
2022-10-19T12:47:13.691Z,0.90
2022-10-19T12:49:51.237Z,0.80
2022-10-19T12:52:43.054Z,1.20
2022-10-19T12:55:30.054Z,1.10
2022-10-19T12:58:05.975Z,0.80
2022-10-19T13:00:40.863Z,0.90
2022-10-19T13:03:26.376Z,1.00
2022-10-19T13:06:04.494Z,1.00
2022-10-19T13:08:44.212Z,0.70
2022-10-19T13:11:18.397Z,0.70
2022-10-19T13:14:06.589Z,0.90
2022-10-19T13:17:01.062Z,0.90
2022-10-19T13:19:34.839Z,0.80
2022-10-19T13:22:28.791Z,1.00
2022-10-19T13:25:24.420Z,0.80
2022-10-19T13:28:02.158Z,0.90
2022-10-19T13:31:08.224Z,0.80
2022-10-19T13:33:52.405Z,0.90
2022-10-19T13:36:28.017Z,1.00
2022-10-19T13:39:13.722Z,1.20
2022-10-19T13:41:53.768Z,0.80
2022-10-19T13:44:31.209Z,0.90
2022-10-19T13:47:33.308Z,0.90
2022-10-19T13:50:32.838Z,1.00
2022-10-19T13:53:25.457Z,1.10
2022-10-19T13:56:19.251Z,0.90
2022-10-19T13:59:34.175Z,1.50
2022-10-19T14:02:36.430Z,1.20
2022-10-19T14:05:27.246Z,1.90
2022-10-19T14:08:12.009Z,1.30
2022-10-19T14:11:00.768Z,1.10
2022-10-19T14:13:36.558Z,0.80
2022-10-19T14:16:19.146Z,1.00
2022-10-19T14:18:58.835Z,1.10
2022-10-19T14:21:37.217Z,1.30
2022-10-19T14:24:29.357Z,0.80
2022-10-19T14:27:05.155Z,1.60
2022-10-19T14:29:46.360Z,1.30
2022-10-19T14:32:22.664Z,1.20
2022-10-19T14:34:59.746Z,1.40
2022-10-19T14:37:33.521Z,1.40
2022-10-19T14:40:26.805Z,0.90
2022-10-19T14:43:03.000Z,0.90
2022-10-19T14:45:37.589Z,1.10
2022-10-19T14:48:20.418Z,0.80
2022-10-19T14:50:57.398Z,0.90
2022-10-19T14:53:41.677Z,0.90
2022-10-19T14:56:20.004Z,1.00
2022-10-19T14:58:59.729Z,0.80
2022-10-19T15:01:33.143Z,1.00
2022-10-19T15:04:06.644Z,1.00
2022-10-19T15:06:43.475Z,0.70
2022-10-19T15:09:37.174Z,0.80
2022-10-19T15:12:21.062Z,0.80
2022-10-19T15:14:55.495Z,1.30
2022-10-19T15:17:31.734Z,0.90
2022-10-19T15:20:19.284Z,1.10
2022-10-19T15:22:52.853Z,0.90
2022-10-19T15:25:37.315Z,1.30
2022-10-19T15:28:39.060Z,0.90
2022-10-19T15:31:21.097Z,1.10
2022-10-19T15:33:56.537Z,1.20
2022-10-19T15:36:31.113Z,1.20
2022-10-19T15:42:35.355Z,1.00
2022-10-19T15:45:34.101Z,1.00
2022-10-19T15:48:29.972Z,1.20
2022-10-19T15:51:03.596Z,1.50
2022-10-19T15:53:36.945Z,1.60
2022-10-19T15:56:13.549Z,1.30
2022-10-19T15:58:54.227Z,1.10
2022-10-19T16:01:30.142Z,1.40
2022-10-19T16:04:03.809Z,1.10
2022-10-19T16:06:38.537Z,1.20
2022-10-19T16:09:20.425Z,1.50
2022-10-19T16:11:57.859Z,1.70
2022-10-19T16:14:34.364Z,1.10
2022-10-19T16:17:12.459Z,1.30
2022-10-19T16:19:46.402Z,1.80
2022-10-19T16:22:20.495Z,1.40
2022-10-19T16:24:53.822Z,1.40
2022-10-19T16:27:27.416Z,1.40
2022-10-19T16:30:01.168Z,2.80
2022-10-19T16:32:35.180Z,2.10
2022-10-19T16:35:10.901Z,2.30
2022-10-19T16:37:45.349Z,2.30
2022-10-19T16:40:18.936Z,2.00
2022-10-19T16:42:52.692Z,1.60
2022-10-19T16:45:26.743Z,2.20
2022-10-19T16:48:01.108Z,2.80
2022-10-19T16:50:35.303Z,1.70
2022-10-19T16:53:12.456Z,2.30
2022-10-19T16:55:45.869Z,1.80
2022-10-19T16:58:19.561Z,1.90
2022-10-19T17:00:53.537Z,2.20
2022-10-19T17:03:28.512Z,2.80
2022-10-19T17:06:03.147Z,2.80
2022-10-19T17:09:02.668Z,2.20
2022-10-19T17:11:34.546Z,2.80
2022-10-19T17:14:10.903Z,2.50
2022-10-19T17:16:44.351Z,2.30
2022-10-19T17:19:18.119Z,2.60
2022-10-19T17:21:51.954Z,1.80
2022-10-19T17:24:27.360Z,1.90
2022-10-19T17:27:04.718Z,1.70
2022-10-19T17:29:39.104Z,1.60
2022-10-19T17:32:13.545Z,3.40
2022-10-19T17:34:47.966Z,4.40
2022-10-19T17:37:21.639Z,3.80
2022-10-19T17:39:56.076Z,2.50
2022-10-19T17:42:30.927Z,2.30
2022-10-19T17:45:05.259Z,2.40
2022-10-19T17:47:39.700Z,2.50
2022-10-19T17:50:14.078Z,2.60
2022-10-19T17:52:47.717Z,2.10
2022-10-19T17:55:25.915Z,2.40
2022-10-19T17:57:59.683Z,2.40
2022-10-19T18:00:33.455Z,1.90
2022-10-19T18:03:07.849Z,2.10
2022-10-19T18:05:42.119Z,2.10
2022-10-19T18:08:16.706Z,2.30
2022-10-19T18:10:57.190Z,2.80
2022-10-19T18:13:32.186Z,3.60
2022-10-19T18:16:08.013Z,3.90
2022-10-19T18:18:44.607Z,4.00
2022-10-19T18:21:21.106Z,4.60
2022-10-19T18:23:57.220Z,5.20
2022-10-19T18:26:33.725Z,5.00
2022-10-19T18:29:14.004Z,5.30
2022-10-19T18:31:52.044Z,5.90
2022-10-19T18:34:28.752Z,6.00
2022-10-19T18:37:02.607Z,5.60
2022-10-19T18:39:37.751Z,5.50
2022-10-19T18:42:13.483Z,4.40
2022-10-19T18:44:57.556Z,3.60
2022-10-19T18:47:32.665Z,3.80
2022-10-19T18:50:09.037Z,5.50
2022-10-19T18:52:44.023Z,4.80
2022-10-19T18:55:18.239Z,4.70
2022-10-19T18:57:54.150Z,4.80
2022-10-19T19:00:28.314Z,5.70
2022-10-19T19:03:04.639Z,7.40
2022-10-19T19:05:38.365Z,7.70
2022-10-19T19:08:15.945Z,7.70
2022-10-19T19:10:50.016Z,8.40
2022-10-19T19:13:24.423Z,7.40
2022-10-19T19:16:02.136Z,7.20
2022-10-19T19:18:37.228Z,6.30
2022-10-19T19:21:18.018Z,5.00
2022-10-19T19:23:53.298Z,5.50
2022-10-19T19:26:29.398Z,5.10
2022-10-19T19:29:04.184Z,5.00
2022-10-19T19:31:40.081Z,5.60
2022-10-19T19:34:14.620Z,6.00
2022-10-19T19:36:49.834Z,6.10
2022-10-19T19:39:28.189Z,5.10
2022-10-19T19:42:02.384Z,4.50
2022-10-19T19:44:37.706Z,4.30
2022-10-19T19:47:12.981Z,4.80
2022-10-19T19:49:50.181Z,5.00
2022-10-19T19:52:24.750Z,4.20
2022-10-19T19:54:58.694Z,4.60
2022-10-19T19:57:33.678Z,4.00
2022-10-19T20:00:10.990Z,4.70
2022-10-19T20:02:52.992Z,5.00
2022-10-19T20:05:27.783Z,4.30
2022-10-19T20:08:01.520Z,4.50
2022-10-19T20:10:35.612Z,4.50
2022-10-19T20:13:09.848Z,4.70
2022-10-19T20:15:43.567Z,4.20
2022-10-19T20:18:17.326Z,4.40
2022-10-19T20:20:54.211Z,4.80
2022-10-19T20:23:29.450Z,5.70
2022-10-19T20:26:04.124Z,6.30
2022-10-19T20:28:38.032Z,5.40
2022-10-19T20:31:13.124Z,5.80
2022-10-19T20:33:48.706Z,5.10
2022-10-19T20:36:25.455Z,5.80
2022-10-19T20:39:00.769Z,7.80
2022-10-19T20:41:35.442Z,11.00
2022-10-19T20:44:08.958Z,8.20
2022-10-19T20:46:43.109Z,8.10
2022-10-19T20:49:18.624Z,7.10
2022-10-19T20:51:54.935Z,7.80
2022-10-19T20:54:28.635Z,7.70
2022-10-19T20:57:02.136Z,9.00
2022-10-19T20:59:37.675Z,9.40
2022-10-19T21:02:13.527Z,7.10
2022-10-19T21:04:47.948Z,7.90
2022-10-19T21:07:21.270Z,9.60
2022-10-19T21:09:55.545Z,10.10
2022-10-19T21:12:28.891Z,9.50
2022-10-19T21:15:02.240Z,6.80
2022-10-19T21:17:35.821Z,6.00
2022-10-19T21:20:10.944Z,7.40
2022-10-19T21:22:44.451Z,7.80
2022-10-19T21:25:18.390Z,8.00
2022-10-19T21:27:54.817Z,8.10
2022-10-19T21:30:28.515Z,8.70
2022-10-19T21:33:01.941Z,9.00
2022-10-19T21:35:37.139Z,8.50
2022-10-19T21:38:11.019Z,6.30
2022-10-19T21:40:44.488Z,8.40
2022-10-19T21:43:18.114Z,9.20
2022-10-19T21:45:51.530Z,6.30
2022-10-19T21:48:25.530Z,5.20
2022-10-19T21:50:58.949Z,6.40
2022-10-19T21:53:32.270Z,12.60
2022-10-19T21:56:05.563Z,7.80
2022-10-19T21:58:38.958Z,7.00
2022-10-19T22:01:12.005Z,7.20
2022-10-19T22:03:45.445Z,13.50
2022-10-19T22:06:37.756Z,13.70
2022-10-19T22:09:13.309Z,13.50
2022-10-19T22:11:47.870Z,15.00
2022-10-19T22:14:21.821Z,14.80
2022-10-19T22:16:55.077Z,11.80
2022-10-19T22:19:28.750Z,8.90
2022-10-19T22:22:02.532Z,5.30
2022-10-19T22:24:36.340Z,5.20
2022-10-19T22:27:09.257Z,6.20
2022-10-19T22:29:42.892Z,7.20
2022-10-19T22:32:16.312Z,9.80
2022-10-19T22:34:49.849Z,9.20
2022-10-19T22:37:23.361Z,7.80
2022-10-19T22:39:56.497Z,6.40
2022-10-19T22:42:31.204Z,6.00
2022-10-19T22:45:05.215Z,5.00
2022-10-19T22:47:38.975Z,6.20
2022-10-19T22:50:13.107Z,10.10
2022-10-19T22:52:46.482Z,12.50
2022-10-19T22:55:20.127Z,9.50
2022-10-19T22:57:53.855Z,7.00
2022-10-19T23:00:27.660Z,5.40
2022-10-19T23:03:01.336Z,5.70
2022-10-19T23:05:35.469Z,6.30
2022-10-19T23:08:09.320Z,6.60
2022-10-19T23:10:42.897Z,9.10
2022-10-19T23:13:16.173Z,7.20
2022-10-19T23:15:50.836Z,7.70
2022-10-19T23:18:24.701Z,6.60
2022-10-19T23:21:00.367Z,7.00
2022-10-19T23:23:34.994Z,5.90
2022-10-19T23:26:10.995Z,5.30
2022-10-19T23:28:46.871Z,4.80
2022-10-19T23:31:24.000Z,5.30
2022-10-19T23:33:58.181Z,4.90
2022-10-19T23:36:32.494Z,5.20
2022-10-19T23:39:06.145Z,4.10
2022-10-19T23:41:39.717Z,4.80
2022-10-19T23:44:12.884Z,4.30
2022-10-19T23:46:46.177Z,4.40
2022-10-19T23:49:19.615Z,4.70
2022-10-19T23:51:53.067Z,7.50
2022-10-19T23:54:26.898Z,7.60
2022-10-19T23:57:00.103Z,8.90
2022-10-19T23:59:33.503Z,8.40
